Home > Products > Valid Products > TAF

000
FTUS44 KHUN 220525
TAFHSV
TAF
KHSV 220525Z 2206/2306 12007KT P6SM BKN015 OVC025
     FM220900 13009KT 5SM BR OVC011
     FM221400 13011KT 6SM -DZ OVC009
     FM222100 13011KT 5SM -RA BR OVC007
     FM230100 13013KT 4SM -RA BR OVC004=



000
FTUS44 KHUN 220525
TAFMSL
TAF
KMSL 220525Z 2206/2306 VRB03KT P6SM BKN015
     FM221000 12007KT P6SM OVC015
     FM221500 13008KT 6SM -DZ OVC009
     FM222100 15010KT 5SM -RA BR OVC004
     FM230000 15011KT 2SM -RA BR OVC004=



000
FTUS44 KHUN 220525
TAFHSV
TAF
KHSV 220525Z 2206/2306 12007KT P6SM BKN015 OVC025
     FM220900 13009KT 5SM BR OVC011
     FM221400 13011KT 6SM -DZ OVC009
     FM222100 13011KT 5SM -RA BR OVC007
     FM230100 13013KT 4SM -RA BR OVC004=



000
FTUS44 KHUN 220525
TAFMSL
TAF
KMSL 220525Z 2206/2306 VRB03KT P6SM BKN015
     FM221000 12007KT P6SM OVC015
     FM221500 13008KT 6SM -DZ OVC009
     FM222100 15010KT 5SM -RA BR OVC004
     FM230000 15011KT 2SM -RA BR OVC004=



000
FTUS44 KHUN 220444 AAA
TAFHSV
TAF AMD
KHSV 220444Z 2205/2224 12007KT 6SM HZ BKN020 OVC035
     FM220700 12009KT 5SM BR OVC015
     FM221400 13008KT 6SM -DZ OVC009=



000
FTUS44 KHUN 220444 AAA
TAFHSV
TAF AMD
KHSV 220444Z 2205/2224 12007KT 6SM HZ BKN020 OVC035
     FM220700 12009KT 5SM BR OVC015
     FM221400 13008KT 6SM -DZ OVC009=



000
FTUS44 KHUN 212330
TAFHSV
TAF
KHSV 212330Z 2200/2224 08005KT P6SM BKN035
     FM220300 10003KT P6SM FEW009 OVC020
     FM220700 12005KT P6SM OVC015
     FM221400 13008KT 6SM -DZ OVC009=



000
FTUS44 KHUN 212330
TAFMSL
TAF
KMSL 212330Z 2200/2224 09004KT P6SM OVC035
     FM221000 12007KT P6SM OVC015
     FM221500 13008KT 6SM -DZ OVC009=



000
FTUS44 KHUN 212330
TAFMSL
TAF
KMSL 212330Z 2200/2224 09004KT P6SM OVC035
     FM221000 12007KT P6SM OVC015
     FM221500 13008KT 6SM -DZ OVC009=



000
FTUS44 KHUN 212330
TAFHSV
TAF
KHSV 212330Z 2200/2224 08005KT P6SM BKN035
     FM220300 10003KT P6SM FEW009 OVC020
     FM220700 12005KT P6SM OVC015
     FM221400 13008KT 6SM -DZ OVC009=



000
FTUS44 KHUN 211740
TAFHSV
TAF
KHSV 211740Z 2118/2218 12003KT P6SM SCT012 OVC035
     FM212100 12005KT P6SM FEW015
     FM220300 10003KT 5SM -DZ BR FEW009 OVC020
     FM220700 11005KT P6SM OVC015
     FM221400 13008KT 6SM -DZ OVC009=



000
FTUS44 KHUN 211740
TAFHSV
TAF
KHSV 211740Z 2118/2218 12003KT P6SM SCT012 OVC035
     FM212100 12005KT P6SM FEW015
     FM220300 10003KT 5SM -DZ BR FEW009 OVC020
     FM220700 11005KT P6SM OVC015
     FM221400 13008KT 6SM -DZ OVC009=



000
FTUS44 KHUN 211740
TAFMSL
TAF
KMSL 211740Z 2118/2218 12004KT P6SM SCT010 OVC035
     FM212300 12004KT P6SM FEW015
     FM221000 12007KT 5SM -DZ OVC015
     FM221500 13008KT 6SM -DZ OVC009=



000
FTUS44 KHUN 211740
TAFMSL
TAF
KMSL 211740Z 2118/2218 12004KT P6SM SCT010 OVC035
     FM212300 12004KT P6SM FEW015
     FM221000 12007KT 5SM -DZ OVC015
     FM221500 13008KT 6SM -DZ OVC009=



000
FTUS44 KHUN 211225 AAA
TAFMSL
TAF AMD
KMSL 211225Z 2112/2212 08005KT P6SM FEW030 SCT250
     FM211500 12005KT P6SM SCT010 OVC030
     FM220800 15004KT 5SM -RA BR FEW007 OVC015=



000
FTUS44 KHUN 211225 AAA
TAFMSL
TAF AMD
KMSL 211225Z 2112/2212 08005KT P6SM FEW030 SCT250
     FM211500 12005KT P6SM SCT010 OVC030
     FM220800 15004KT 5SM -RA BR FEW007 OVC015=



000
FTUS44 KHUN 211225 AAA
TAFMSL
TAF AMD
KMSL 211225Z 2112/2212 08005KT P6SM FEW030 SCT250
     FM211500 12005KT P6SM SCT010 OVC030
     FM220800 15004KT 5SM -RA BR FEW007 OVC015=



000
FTUS44 KHUN 211225 AAA
TAFMSL
TAF AMD
KMSL 211225Z 2112/2212 08005KT P6SM FEW030 SCT250
     FM211500 12005KT P6SM SCT010 OVC030
     FM220800 15004KT 5SM -RA BR FEW007 OVC015=



000
FTUS44 KHUN 211224 AAA
TAFHSV
TAF AMD
KHSV 211224Z 2112/2212 09005KT P6SM FEW010 SCT030
     FM211400 13005KT P6SM SCT010 OVC030
     FM220600 10003KT 5SM -RA BR FEW007 OVC015=



000
FTUS44 KHUN 211224 AAA
TAFHSV
TAF AMD
KHSV 211224Z 2112/2212 09005KT P6SM FEW010 SCT030
     FM211400 13005KT P6SM SCT010 OVC030
     FM220600 10003KT 5SM -RA BR FEW007 OVC015=



000
FTUS44 KHUN 211224 AAA
TAFHSV
TAF AMD
KHSV 211224Z 2112/2212 09005KT P6SM FEW010 SCT030
     FM211400 13005KT P6SM SCT010 OVC030
     FM220600 10003KT 5SM -RA BR FEW007 OVC015=



000
FTUS44 KHUN 211224 AAA
TAFHSV
TAF AMD
KHSV 211224Z 2112/2212 09005KT P6SM FEW010 SCT030
     FM211400 13005KT P6SM SCT010 OVC030
     FM220600 10003KT 5SM -RA BR FEW007 OVC015=



000
FTUS44 KHUN 211128
TAFHSV
TAF
KHSV 211128Z 2112/2212 08005KT P6SM SCT030 SCT250
     FM211500 13005KT P6SM SCT030 OVC100
     FM212000 12003KT P6SM OVC030
     FM220600 10003KT 5SM -RA BR FEW007 OVC015=



000
FTUS44 KHUN 211128
TAFMSL
TAF
KMSL 211128Z 2112/2212 08005KT P6SM FEW030 SCT250
     FM211800 12005KT P6SM SCT030 OVC100
     FM220000 13004KT P6SM OVC030
     FM220800 15004KT 5SM -RA BR FEW007 OVC015=



000
FTUS44 KHUN 211128
TAFHSV
TAF
KHSV 211128Z 2112/2212 08005KT P6SM SCT030 SCT250
     FM211500 13005KT P6SM SCT030 OVC100
     FM212000 12003KT P6SM OVC030
     FM220600 10003KT 5SM -RA BR FEW007 OVC015=



000
FTUS44 KHUN 211128
TAFMSL
TAF
KMSL 211128Z 2112/2212 08005KT P6SM FEW030 SCT250
     FM211800 12005KT P6SM SCT030 OVC100
     FM220000 13004KT P6SM OVC030
     FM220800 15004KT 5SM -RA BR FEW007 OVC015=



000
FTUS44 KHUN 210525
TAFMSL
TAF
KMSL 210525Z 2106/2206 03003KT P6SM SKC
     FM211000 05004KT 5SM BR FEW250
     FM211500 08005KT P6SM SCT250
     FM211900 12005KT P6SM SCT130 BKN200
     FM220200 13004KT P6SM BKN050 OVC110=



000
FTUS44 KHUN 210525
TAFHSV
TAF
KHSV 210525Z 2106/2206 03003KT P6SM SKC
     FM211000 04004KT 5SM BR FEW250
     FM211400 08005KT P6SM SCT250
     FM212000 13005KT P6SM SCT070 OVC200
     FM220300 10003KT P6SM -RA OVC040=



000
FTUS44 KHUN 210525
TAFMSL
TAF
KMSL 210525Z 2106/2206 03003KT P6SM SKC
     FM211000 05004KT 5SM BR FEW250
     FM211500 08005KT P6SM SCT250
     FM211900 12005KT P6SM SCT130 BKN200
     FM220200 13004KT P6SM BKN050 OVC110=



000
FTUS44 KHUN 210525
TAFHSV
TAF
KHSV 210525Z 2106/2206 03003KT P6SM SKC
     FM211000 04004KT 5SM BR FEW250
     FM211400 08005KT P6SM SCT250
     FM212000 13005KT P6SM SCT070 OVC200
     FM220300 10003KT P6SM -RA OVC040=



000
FTUS44 KHUN 202325
TAFHSV
TAF
KHSV 202325Z 2100/2124 03004KT P6SM SKC
     FM211000 04004KT 5SM BR FEW250
     FM211400 08005KT P6SM SCT250
     FM211900 13005KT P6SM SCT130 BKN200=



000
FTUS44 KHUN 202325
TAFMSL
TAF
KMSL 202325Z 2100/2124 01003KT P6SM SKC
     FM211000 05004KT 5SM BR FEW250
     FM211500 08005KT P6SM SCT250
     FM212000 12005KT P6SM SCT070 OVC200=



000
FTUS44 KHUN 202325
TAFHSV
TAF
KHSV 202325Z 2100/2124 03004KT P6SM SKC
     FM211000 04004KT 5SM BR FEW250
     FM211400 08005KT P6SM SCT250
     FM212000 13005KT P6SM SCT070 OVC200=



000
FTUS44 KHUN 202325
TAFMSL
TAF
KMSL 202325Z 2100/2124 01003KT P6SM SKC
     FM211000 05004KT 5SM BR FEW250
     FM211500 08005KT P6SM SCT250
     FM211900 12005KT P6SM SCT130 BKN200=



000
FTUS44 KHUN 202325
TAFHSV
TAF
KHSV 202325Z 2100/2124 03004KT P6SM SKC
     FM211000 04004KT 5SM BR FEW250
     FM211400 08005KT P6SM SCT250
     FM212000 13005KT P6SM SCT070 OVC200=



000
FTUS44 KHUN 202325
TAFHSV
TAF
KHSV 202325Z 2100/2124 03004KT P6SM SKC
     FM211000 04004KT 5SM BR FEW250
     FM211400 08005KT P6SM SCT250
     FM211900 13005KT P6SM SCT130 BKN200=



000
FTUS44 KHUN 202325
TAFMSL
TAF
KMSL 202325Z 2100/2124 01003KT P6SM SKC
     FM211000 05004KT 5SM BR FEW250
     FM211500 08005KT P6SM SCT250
     FM211900 12005KT P6SM SCT130 BKN200=



000
FTUS44 KHUN 202325
TAFMSL
TAF
KMSL 202325Z 2100/2124 01003KT P6SM SKC
     FM211000 05004KT 5SM BR FEW250
     FM211500 08005KT P6SM SCT250
     FM212000 12005KT P6SM SCT070 OVC200=



000
FTUS44 KHUN 201720
TAFMSL
TAF
KMSL 201720Z 2018/2118 03005KT P6SM SKC
     FM210000 VRB03KT P6SM FEW250
     FM211200 05005KT 5SM BR FEW250
     FM211500 09005KT P6SM FEW250=



000
FTUS44 KHUN 201720
TAFHSV
TAF
KHSV 201720Z 2018/2118 01005KT P6SM SKC
     FM210000 VRB04KT P6SM FEW250
     FM210900 04005KT 5SM BR FEW250
     FM211400 08005KT P6SM FEW250=



000
FTUS44 KHUN 201720
TAFMSL
TAF
KMSL 201720Z 2018/2118 03005KT P6SM SKC
     FM210000 VRB03KT P6SM FEW250
     FM211200 05005KT 5SM BR FEW250
     FM211500 09005KT P6SM FEW250=



000
FTUS44 KHUN 201720
TAFHSV
TAF
KHSV 201720Z 2018/2118 01005KT P6SM SKC
     FM210000 VRB04KT P6SM FEW250
     FM210900 04005KT 5SM BR FEW250
     FM211400 08005KT P6SM FEW250=



000
FTUS44 KHUN 201128
TAFHSV
TAF
KHSV 201128Z 2012/2112 01005KT P6SM SCT120
     FM210000 VRB04KT P6SM SCT250=



000
FTUS44 KHUN 201128
TAFMSL
TAF
KMSL 201128Z 2012/2112 03005KT P6SM SCT120
     FM210000 VRB03KT P6SM SCT250=



000
FTUS44 KHUN 201128
TAFMSL
TAF
KMSL 201128Z 2012/2112 03005KT P6SM SCT120
     FM210000 VRB03KT P6SM SCT250=



000
FTUS44 KHUN 201128
TAFHSV
TAF
KHSV 201128Z 2012/2112 01005KT P6SM SCT120
     FM210000 VRB04KT P6SM SCT250=



000
FTUS44 KHUN 200520
TAFHSV
TAF
KHSV 200520Z 2006/2106 VRB04KT P6SM OVC070
     FM201500 01005KT P6SM SCT070 BKN120
     FM210000 VRB04KT P6SM SCT120=



000
FTUS44 KHUN 200520
TAFMSL
TAF
KMSL 200520Z 2006/2106 VRB03KT P6SM OVC070
     FM201400 03005KT P6SM SCT070 SCT120
     FM210000 VRB03KT P6SM SCT250=



000
FTUS44 KHUN 200520
TAFHSV
TAF
KHSV 200520Z 2006/2106 VRB04KT P6SM OVC070
     FM201500 01005KT P6SM SCT070 BKN120
     FM210000 VRB04KT P6SM SCT120=



000
FTUS44 KHUN 200520
TAFMSL
TAF
KMSL 200520Z 2006/2106 VRB03KT P6SM OVC070
     FM201400 03005KT P6SM SCT070 SCT120
     FM210000 VRB03KT P6SM SCT250=



000
FTUS44 KHUN 192328 CCA
TAFMSL
TAF COR
KMSL 192328Z 2000/2024 VRB03KT P6SM VCSH OVC100
     FM200300 VRB02KT 6SM -RA BR OVC040
      TEMPO 2004/2006 5SM -RA BR OVC025
     FM201200 03005KT P6SM SCT040 SCT120=



000
FTUS44 KHUN 192328 CCA
TAFMSL
TAF COR
KMSL 192328Z 2000/2024 VRB03KT P6SM VCSH OVC100
     FM200300 VRB02KT 6SM -RA BR OVC040
      TEMPO 2004/2006 5SM -RA BR OVC025
     FM201200 03005KT P6SM SCT040 SCT120=



000
FTUS44 KHUN 192328
TAFHSV
TAF
KHSV 192328Z 2000/2024 VRB04KT P6SM VCSH OVC120
     FM200500 VRB03KT 6SM -RA BR OVC040
      TEMPO 2006/2008 4SM -RA BR OVC020
     FM201400 01005KT P6SM SCT040 BKN120=



000
FTUS44 KHUN 192328
TAFMSL
TAF
KMSL 192328Z 2000/2024 VRB03KT P6SM OVC100
     FM200300 VRB02KT 6SM -RA BR OVC040
      TEMPO 2004/2006 5SM -RA BR OVC025
     FM201200 03005KT P6SM SCT040 SCT120=



000
FTUS44 KHUN 192328
TAFMSL
TAF
KMSL 192328Z 2000/2024 VRB03KT P6SM OVC100
     FM200300 VRB02KT 6SM -RA BR OVC040
      TEMPO 2004/2006 5SM -RA BR OVC025
     FM201200 03005KT P6SM SCT040 SCT120=



000
FTUS44 KHUN 192328
TAFHSV
TAF
KHSV 192328Z 2000/2024 VRB04KT P6SM VCSH OVC120
     FM200500 VRB03KT 6SM -RA BR OVC040
      TEMPO 2006/2008 4SM -RA BR OVC020
     FM201400 01005KT P6SM SCT040 BKN120=



000
FTUS44 KHUN 191720
TAFMSL
TAF
KMSL 191720Z 1918/2018 06003KT P6SM OVC040
     FM200000 05005KT 5SM -RA BR OVC025
     FM200900 02003KT 4SM -RA BR SCT009 OVC015
     FM201500 05006KT P6SM FEW020 OVC100=



000
FTUS44 KHUN 191720
TAFHSV
TAF
KHSV 191720Z 1918/2018 02006KT P6SM OVC040
     FM200200 01004KT 5SM -RA BR OVC025
     FM200900 02003KT 4SM -RA BR SCT009 OVC015
     FM201500 05006KT P6SM FEW020 OVC100=



000
FTUS44 KHUN 191720
TAFMSL
TAF
KMSL 191720Z 1918/2018 06003KT P6SM OVC040
     FM200000 05005KT 5SM -RA BR OVC025
     FM200900 02003KT 4SM -RA BR SCT009 OVC015
     FM201500 05006KT P6SM FEW020 OVC100=



000
FTUS44 KHUN 191720
TAFHSV
TAF
KHSV 191720Z 1918/2018 02006KT P6SM OVC040
     FM200200 01004KT 5SM -RA BR OVC025
     FM200900 02003KT 4SM -RA BR SCT009 OVC015
     FM201500 05006KT P6SM FEW020 OVC100=



000
FTUS44 KHUN 191259 AAA
TAFHSV
TAF AMD
KHSV 191259Z 1913/2012 02003KT P6SM BKN040
     FM200200 01004KT 5SM -RA BR OVC025
     FM200900 02003KT 4SM -RA BR SCT009 OVC015=



000
FTUS44 KHUN 191259 AAA
TAFHSV
TAF AMD
KHSV 191259Z 1913/2012 02003KT P6SM BKN040
     FM200200 01004KT 5SM -RA BR OVC025
     FM200900 02003KT 4SM -RA BR SCT009 OVC015=



000
FTUS44 KHUN 191124
TAFHSV
TAF
KHSV 191124Z 1912/2012 02003KT 5SM BR BKN040
     FM191400 03004KT P6SM OVC040
     FM200200 01004KT 5SM -RA BR OVC025
     FM200900 02003KT 4SM -RA BR SCT009 OVC015=



000
FTUS44 KHUN 191124
TAFMSL
TAF
KMSL 191124Z 1912/2012 06003KT P6SM BKN040
     FM200000 05005KT 5SM -RA BR OVC025
     FM200900 02003KT 4SM -RA BR SCT009 OVC015=



000
FTUS44 KHUN 191124
TAFMSL
TAF
KMSL 191124Z 1912/2012 06003KT P6SM BKN040
     FM200000 05005KT 5SM -RA BR OVC025
     FM200900 02003KT 4SM -RA BR SCT009 OVC015=



000
FTUS44 KHUN 191124
TAFHSV
TAF
KHSV 191124Z 1912/2012 02003KT 5SM BR BKN040
     FM191400 03004KT P6SM OVC040
     FM200200 01004KT 5SM -RA BR OVC025
     FM200900 02003KT 4SM -RA BR SCT009 OVC015=



    US Dept of Commerce
    National Oceanic and Atmospheric Administration
    National Weather Service
    1325 East West Highway
    Silver Spring, MD 20910
    Page Author: NWS Internet Services Team
Disclaimer
Information Quality
Credits
Glossary
Privacy Policy
Freedom of Information Act (FOIA)
About Us
Career Opportunities